sensor_id;sensor_type;location;lat;lon;timestamp;temperature;humidity
48666;DHT22;34452;50.796;4.994;2023-06-24T00:02:22;19.10;99.90
48666;DHT22;34452;50.796;4.994;2023-06-24T00:04:50;19.20;99.90
48666;DHT22;34452;50.796;4.994;2023-06-24T00:07:16;19.20;99.90
48666;DHT22;34452;50.796;4.994;2023-06-24T00:09:42;19.10;99.90
48666;DHT22;34452;50.796;4.994;2023-06-24T00:12:07;19.00;99.90
48666;DHT22;34452;50.796;4.994;2023-06-24T00:14:33;18.90;99.90
48666;DHT22;34452;50.796;4.994;2023-06-24T00:16:59;18.90;99.90
48666;DHT22;34452;50.796;4.994;2023-06-24T00:19:26;18.80;99.90
48666;DHT22;34452;50.796;4.994;2023-06-24T00:21:53;18.70;99.90
48666;DHT22;34452;50.796;4.994;2023-06-24T00:24:20;18.70;99.90
48666;DHT22;34452;50.796;4.994;2023-06-24T00:26:46;18.60;99.90
48666;DHT22;34452;50.796;4.994;2023-06-24T00:29:13;18.60;99.90
48666;DHT22;34452;50.796;4.994;2023-06-24T00:31:39;18.50;99.90
48666;DHT22;34452;50.796;4.994;2023-06-24T00:34:05;18.50;99.90
48666;DHT22;34452;50.796;4.994;2023-06-24T00:36:30;18.50;99.90
48666;DHT22;34452;50.796;4.994;2023-06-24T00:38:58;18.50;99.90
48666;DHT22;34452;50.796;4.994;2023-06-24T00:41:30;18.50;99.90
48666;DHT22;34452;50.796;4.994;2023-06-24T00:43:57;18.60;99.90
48666;DHT22;34452;50.796;4.994;2023-06-24T00:46:24;18.60;99.90
48666;DHT22;34452;50.796;4.994;2023-06-24T00:48:52;18.60;99.90
48666;DHT22;34452;50.796;4.994;2023-06-24T00:51:17;18.70;99.90
48666;DHT22;34452;50.796;4.994;2023-06-24T00:53:47;18.70;99.90
48666;DHT22;34452;50.796;4.994;2023-06-24T00:56:14;18.60;99.90
48666;DHT22;34452;50.796;4.994;2023-06-24T00:58:42;18.60;99.90
48666;DHT22;34452;50.796;4.994;2023-06-24T01:01:09;18.60;99.90
48666;DHT22;34452;50.796;4.994;2023-06-24T01:03:36;18.60;99.90
48666;DHT22;34452;50.796;4.994;2023-06-24T01:06:03;18.60;99.90
48666;DHT22;34452;50.796;4.994;2023-06-24T01:08:28;18.60;99.90
48666;DHT22;34452;50.796;4.994;2023-06-24T01:10:54;18.60;99.90
48666;DHT22;34452;50.796;4.994;2023-06-24T01:13:20;18.50;99.90
48666;DHT22;34452;50.796;4.994;2023-06-24T01:15:46;18.40;99.90
48666;DHT22;34452;50.796;4.994;2023-06-24T01:18:33;18.30;99.90
48666;DHT22;34452;50.796;4.994;2023-06-24T01:21:21;18.30;99.90
48666;DHT22;34452;50.796;4.994;2023-06-24T01:29:52;18.20;99.90
48666;DHT22;34452;50.796;4.994;2023-06-24T01:32:26;18.20;99.90
48666;DHT22;34452;50.796;4.994;2023-06-24T01:34:59;18.20;99.90
48666;DHT22;34452;50.796;4.994;2023-06-24T01:37:45;18.20;99.90
48666;DHT22;34452;50.796;4.994;2023-06-24T01:40:34;18.20;99.90
48666;DHT22;34452;50.796;4.994;2023-06-24T01:43:04;18.10;99.90
48666;DHT22;34452;50.796;4.994;2023-06-24T01:45:36;18.10;99.90
48666;DHT22;34452;50.796;4.994;2023-06-24T01:48:09;18.00;99.90
48666;DHT22;34452;50.796;4.994;2023-06-24T01:50:36;18.00;99.90
48666;DHT22;34452;50.796;4.994;2023-06-24T01:53:06;18.00;99.90
48666;DHT22;34452;50.796;4.994;2023-06-24T01:55:34;17.90;99.90
48666;DHT22;34452;50.796;4.994;2023-06-24T01:58:02;17.80;99.90
48666;DHT22;34452;50.796;4.994;2023-06-24T02:00:29;17.80;99.90
48666;DHT22;34452;50.796;4.994;2023-06-24T02:02:54;17.80;99.90
48666;DHT22;34452;50.796;4.994;2023-06-24T02:05:21;17.70;99.90
48666;DHT22;34452;50.796;4.994;2023-06-24T02:07:50;17.70;99.90
48666;DHT22;34452;50.796;4.994;2023-06-24T02:10:17;17.70;99.90
48666;DHT22;34452;50.796;4.994;2023-06-24T02:12:46;17.50;99.90
48666;DHT22;34452;50.796;4.994;2023-06-24T02:15:13;17.40;99.90
48666;DHT22;34452;50.796;4.994;2023-06-24T02:17:40;17.40;99.90
48666;DHT22;34452;50.796;4.994;2023-06-24T02:20:07;17.30;99.90
48666;DHT22;34452;50.796;4.994;2023-06-24T02:22:37;17.30;99.90
48666;DHT22;34452;50.796;4.994;2023-06-24T02:25:05;17.30;99.90
48666;DHT22;34452;50.796;4.994;2023-06-24T02:27:32;17.20;99.90
48666;DHT22;34452;50.796;4.994;2023-06-24T02:29:58;17.10;99.90
48666;DHT22;34452;50.796;4.994;2023-06-24T02:32:25;17.10;99.90
48666;DHT22;34452;50.796;4.994;2023-06-24T02:34:51;17.00;99.90
48666;DHT22;34452;50.796;4.994;2023-06-24T02:37:17;16.90;99.90
48666;DHT22;34452;50.796;4.994;2023-06-24T02:39:42;16.90;99.90
48666;DHT22;34452;50.796;4.994;2023-06-24T02:42:11;16.80;99.90
48666;DHT22;34452;50.796;4.994;2023-06-24T02:44:39;16.80;99.90
48666;DHT22;34452;50.796;4.994;2023-06-24T02:47:08;16.80;99.90
48666;DHT22;34452;50.796;4.994;2023-06-24T02:49:35;16.80;99.90
48666;DHT22;34452;50.796;4.994;2023-06-24T02:52:03;16.70;99.90
48666;DHT22;34452;50.796;4.994;2023-06-24T02:54:29;16.80;99.90
48666;DHT22;34452;50.796;4.994;2023-06-24T02:56:55;16.80;99.90
48666;DHT22;34452;50.796;4.994;2023-06-24T02:59:23;16.80;99.90
48666;DHT22;34452;50.796;4.994;2023-06-24T03:01:50;16.80;99.90
48666;DHT22;34452;50.796;4.994;2023-06-24T03:04:17;16.80;99.90
48666;DHT22;34452;50.796;4.994;2023-06-24T03:06:43;16.80;99.90
48666;DHT22;34452;50.796;4.994;2023-06-24T03:09:09;16.80;99.90
48666;DHT22;34452;50.796;4.994;2023-06-24T03:11:54;16.80;99.90
48666;DHT22;34452;50.796;4.994;2023-06-24T03:14:20;16.70;99.90
48666;DHT22;34452;50.796;4.994;2023-06-24T03:16:45;16.60;99.90
48666;DHT22;34452;50.796;4.994;2023-06-24T03:19:11;16.60;99.90
48666;DHT22;34452;50.796;4.994;2023-06-24T03:21:37;16.60;99.90
48666;DHT22;34452;50.796;4.994;2023-06-24T03:24:03;16.50;99.90
48666;DHT22;34452;50.796;4.994;2023-06-24T03:26:47;16.40;99.90
48666;DHT22;34452;50.796;4.994;2023-06-24T03:29:13;16.40;99.90
48666;DHT22;34452;50.796;4.994;2023-06-24T03:31:39;16.40;99.90
48666;DHT22;34452;50.796;4.994;2023-06-24T03:34:10;16.20;99.90
48666;DHT22;34452;50.796;4.994;2023-06-24T03:36:35;16.20;99.90
48666;DHT22;34452;50.796;4.994;2023-06-24T03:39:04;16.20;99.90
48666;DHT22;34452;50.796;4.994;2023-06-24T03:41:30;16.20;99.90
48666;DHT22;34452;50.796;4.994;2023-06-24T03:43:55;16.10;99.90
48666;DHT22;34452;50.796;4.994;2023-06-24T03:46:21;16.20;99.90
48666;DHT22;34452;50.796;4.994;2023-06-24T03:48:49;16.20;99.90
48666;DHT22;34452;50.796;4.994;2023-06-24T03:51:15;16.20;99.90
48666;DHT22;34452;50.796;4.994;2023-06-24T03:53:41;16.20;99.90
48666;DHT22;34452;50.796;4.994;2023-06-24T03:56:06;16.30;99.90
48666;DHT22;34452;50.796;4.994;2023-06-24T03:58:32;16.30;99.90
48666;DHT22;34452;50.796;4.994;2023-06-24T04:01:00;16.30;99.90
48666;DHT22;34452;50.796;4.994;2023-06-24T04:03:26;16.30;99.90
48666;DHT22;34452;50.796;4.994;2023-06-24T04:05:54;16.30;99.90
48666;DHT22;34452;50.796;4.994;2023-06-24T04:08:20;16.40;99.90
48666;DHT22;34452;50.796;4.994;2023-06-24T04:10:46;16.40;99.90
48666;DHT22;34452;50.796;4.994;2023-06-24T04:13:12;16.50;99.90
48666;DHT22;34452;50.796;4.994;2023-06-24T04:15:37;16.50;99.90
48666;DHT22;34452;50.796;4.994;2023-06-24T04:18:03;16.50;99.90
48666;DHT22;34452;50.796;4.994;2023-06-24T04:20:29;16.50;99.90
48666;DHT22;34452;50.796;4.994;2023-06-24T04:22:55;16.50;99.90
48666;DHT22;34452;50.796;4.994;2023-06-24T04:25:20;16.40;99.90
48666;DHT22;34452;50.796;4.994;2023-06-24T04:27:46;16.30;99.90
48666;DHT22;34452;50.796;4.994;2023-06-24T04:30:12;16.30;99.90
48666;DHT22;34452;50.796;4.994;2023-06-24T04:32:38;16.30;99.90
48666;DHT22;34452;50.796;4.994;2023-06-24T04:35:03;16.40;99.90
48666;DHT22;34452;50.796;4.994;2023-06-24T04:37:29;16.40;99.90
48666;DHT22;34452;50.796;4.994;2023-06-24T04:39:55;16.40;99.90
48666;DHT22;34452;50.796;4.994;2023-06-24T04:42:22;16.40;99.90
48666;DHT22;34452;50.796;4.994;2023-06-24T04:44:48;16.50;99.90
48666;DHT22;34452;50.796;4.994;2023-06-24T04:47:17;16.60;99.90
48666;DHT22;34452;50.796;4.994;2023-06-24T04:49:43;16.60;99.90
48666;DHT22;34452;50.796;4.994;2023-06-24T04:52:11;16.70;99.90
48666;DHT22;34452;50.796;4.994;2023-06-24T04:54:36;16.70;99.90
48666;DHT22;34452;50.796;4.994;2023-06-24T04:57:02;16.80;99.90
48666;DHT22;34452;50.796;4.994;2023-06-24T04:59:28;16.80;99.90
48666;DHT22;34452;50.796;4.994;2023-06-24T05:01:54;16.80;99.90
48666;DHT22;34452;50.796;4.994;2023-06-24T05:04:19;16.90;99.90
48666;DHT22;34452;50.796;4.994;2023-06-24T05:06:45;16.90;99.90
48666;DHT22;34452;50.796;4.994;2023-06-24T05:09:11;16.90;99.90
48666;DHT22;34452;50.796;4.994;2023-06-24T05:11:40;17.00;99.90
48666;DHT22;34452;50.796;4.994;2023-06-24T05:14:06;17.00;99.90
48666;DHT22;34452;50.796;4.994;2023-06-24T05:16:31;17.10;99.90
48666;DHT22;34452;50.796;4.994;2023-06-24T05:18:57;17.10;99.90
48666;DHT22;34452;50.796;4.994;2023-06-24T05:21:23;17.20;99.90
48666;DHT22;34452;50.796;4.994;2023-06-24T05:23:49;17.30;99.90
48666;DHT22;34452;50.796;4.994;2023-06-24T05:26:15;17.40;99.90
48666;DHT22;34452;50.796;4.994;2023-06-24T05:28:40;17.40;99.90
48666;DHT22;34452;50.796;4.994;2023-06-24T05:31:06;17.50;99.90
48666;DHT22;34452;50.796;4.994;2023-06-24T05:33:32;17.60;99.90
48666;DHT22;34452;50.796;4.994;2023-06-24T05:35:57;17.60;99.90
48666;DHT22;34452;50.796;4.994;2023-06-24T05:38:23;17.70;99.90
48666;DHT22;34452;50.796;4.994;2023-06-24T05:40:49;17.70;99.90
48666;DHT22;34452;50.796;4.994;2023-06-24T05:43:14;17.80;99.90
48666;DHT22;34452;50.796;4.994;2023-06-24T05:45:40;17.90;99.90
48666;DHT22;34452;50.796;4.994;2023-06-24T05:48:07;17.90;99.90
48666;DHT22;34452;50.796;4.994;2023-06-24T05:50:33;18.00;99.90
48666;DHT22;34452;50.796;4.994;2023-06-24T05:52:58;18.00;99.90
48666;DHT22;34452;50.796;4.994;2023-06-24T05:55:24;18.00;99.90
48666;DHT22;34452;50.796;4.994;2023-06-24T05:57:50;18.00;99.90
48666;DHT22;34452;50.796;4.994;2023-06-24T06:00:17;18.10;99.90
48666;DHT22;34452;50.796;4.994;2023-06-24T06:02:43;18.10;99.90
48666;DHT22;34452;50.796;4.994;2023-06-24T06:05:09;18.20;99.90
48666;DHT22;34452;50.796;4.994;2023-06-24T06:07:35;18.30;99.90
48666;DHT22;34452;50.796;4.994;2023-06-24T06:10:03;18.40;99.90
48666;DHT22;34452;50.796;4.994;2023-06-24T06:12:29;18.50;99.90
48666;DHT22;34452;50.796;4.994;2023-06-24T06:14:55;18.50;99.90
48666;DHT22;34452;50.796;4.994;2023-06-24T06:17:21;18.60;99.90
48666;DHT22;34452;50.796;4.994;2023-06-24T06:19:46;18.60;99.90
48666;DHT22;34452;50.796;4.994;2023-06-24T06:22:12;18.70;99.90
48666;DHT22;34452;50.796;4.994;2023-06-24T06:24:39;18.80;99.90
48666;DHT22;34452;50.796;4.994;2023-06-24T06:27:09;18.80;99.90
48666;DHT22;34452;50.796;4.994;2023-06-24T06:29:34;18.90;99.90
48666;DHT22;34452;50.796;4.994;2023-06-24T06:32:00;18.90;99.90
48666;DHT22;34452;50.796;4.994;2023-06-24T06:34:26;19.00;99.90
48666;DHT22;34452;50.796;4.994;2023-06-24T06:36:52;19.10;99.90
48666;DHT22;34452;50.796;4.994;2023-06-24T06:39:17;19.10;99.90
48666;DHT22;34452;50.796;4.994;2023-06-24T06:41:43;19.20;99.90
48666;DHT22;34452;50.796;4.994;2023-06-24T06:44:09;19.20;99.90
48666;DHT22;34452;50.796;4.994;2023-06-24T06:46:34;19.30;99.90
48666;DHT22;34452;50.796;4.994;2023-06-24T06:49:00;19.30;99.90
48666;DHT22;34452;50.796;4.994;2023-06-24T06:51:26;19.30;99.90
48666;DHT22;34452;50.796;4.994;2023-06-24T06:53:52;19.40;99.90
48666;DHT22;34452;50.796;4.994;2023-06-24T06:59:05;19.50;99.90
48666;DHT22;34452;50.796;4.994;2023-06-24T07:01:30;19.60;99.90
48666;DHT22;34452;50.796;4.994;2023-06-24T07:03:56;19.70;99.90
48666;DHT22;34452;50.796;4.994;2023-06-24T07:06:22;19.70;99.90
48666;DHT22;34452;50.796;4.994;2023-06-24T07:08:48;19.70;99.90
48666;DHT22;34452;50.796;4.994;2023-06-24T07:11:14;19.80;99.90
48666;DHT22;34452;50.796;4.994;2023-06-24T07:13:39;19.90;99.90
48666;DHT22;34452;50.796;4.994;2023-06-24T07:16:05;20.00;99.90
48666;DHT22;34452;50.796;4.994;2023-06-24T07:18:31;20.00;99.90
48666;DHT22;34452;50.796;4.994;2023-06-24T07:20:56;20.00;99.90
48666;DHT22;34452;50.796;4.994;2023-06-24T07:23:22;20.10;99.90
48666;DHT22;34452;50.796;4.994;2023-06-24T07:25:48;20.20;99.90
48666;DHT22;34452;50.796;4.994;2023-06-24T07:28:14;20.20;99.90
48666;DHT22;34452;50.796;4.994;2023-06-24T07:30:40;20.20;99.90
48666;DHT22;34452;50.796;4.994;2023-06-24T07:33:07;20.30;99.90
48666;DHT22;34452;50.796;4.994;2023-06-24T07:35:32;20.40;99.90
48666;DHT22;34452;50.796;4.994;2023-06-24T07:37:59;20.50;99.90
48666;DHT22;34452;50.796;4.994;2023-06-24T07:40:25;20.60;99.90
48666;DHT22;34452;50.796;4.994;2023-06-24T07:42:51;20.60;99.90
48666;DHT22;34452;50.796;4.994;2023-06-24T07:45:16;20.70;99.90
48666;DHT22;34452;50.796;4.994;2023-06-24T07:47:42;20.80;99.90
48666;DHT22;34452;50.796;4.994;2023-06-24T07:50:08;20.80;99.90
48666;DHT22;34452;50.796;4.994;2023-06-24T07:52:36;20.90;99.90
48666;DHT22;34452;50.796;4.994;2023-06-24T07:55:02;21.00;99.90
48666;DHT22;34452;50.796;4.994;2023-06-24T07:57:29;21.00;99.90
48666;DHT22;34452;50.796;4.994;2023-06-24T07:59:55;21.10;99.90
48666;DHT22;34452;50.796;4.994;2023-06-24T08:02:21;21.20;99.90
48666;DHT22;34452;50.796;4.994;2023-06-24T08:04:47;21.20;99.90
48666;DHT22;34452;50.796;4.994;2023-06-24T08:07:12;21.30;99.90
48666;DHT22;34452;50.796;4.994;2023-06-24T08:09:38;21.30;99.90
48666;DHT22;34452;50.796;4.994;2023-06-24T08:12:04;21.40;99.90
48666;DHT22;34452;50.796;4.994;2023-06-24T08:14:30;21.40;99.90
48666;DHT22;34452;50.796;4.994;2023-06-24T08:16:56;21.50;99.90
48666;DHT22;34452;50.796;4.994;2023-06-24T08:19:21;21.60;99.90
48666;DHT22;34452;50.796;4.994;2023-06-24T08:21:47;21.60;99.90
48666;DHT22;34452;50.796;4.994;2023-06-24T08:24:13;21.70;99.90
48666;DHT22;34452;50.796;4.994;2023-06-24T08:26:38;21.80;99.90
48666;DHT22;34452;50.796;4.994;2023-06-24T08:29:04;21.80;99.90
48666;DHT22;34452;50.796;4.994;2023-06-24T08:31:30;21.90;99.90
48666;DHT22;34452;50.796;4.994;2023-06-24T08:33:59;21.90;99.90
48666;DHT22;34452;50.796;4.994;2023-06-24T08:36:26;21.90;99.90
48666;DHT22;34452;50.796;4.994;2023-06-24T08:38:52;22.00;99.90
48666;DHT22;34452;50.796;4.994;2023-06-24T08:41:18;22.10;99.90
48666;DHT22;34452;50.796;4.994;2023-06-24T08:43:44;22.20;99.90
48666;DHT22;34452;50.796;4.994;2023-06-24T08:46:10;22.20;99.90
48666;DHT22;34452;50.796;4.994;2023-06-24T08:48:39;22.30;99.90
48666;DHT22;34452;50.796;4.994;2023-06-24T08:51:08;22.40;99.90
48666;DHT22;34452;50.796;4.994;2023-06-24T08:53:35;22.40;99.90
48666;DHT22;34452;50.796;4.994;2023-06-24T08:56:02;22.50;99.90
48666;DHT22;34452;50.796;4.994;2023-06-24T08:58:27;22.50;98.50
48666;DHT22;34452;50.796;4.994;2023-06-24T09:00:53;22.60;99.80
48666;DHT22;34452;50.796;4.994;2023-06-24T09:03:19;22.70;99.90
48666;DHT22;34452;50.796;4.994;2023-06-24T09:05:45;22.70;99.90
48666;DHT22;34452;50.796;4.994;2023-06-24T09:08:11;22.80;99.40
48666;DHT22;34452;50.796;4.994;2023-06-24T09:10:37;22.90;98.80
48666;DHT22;34452;50.796;4.994;2023-06-24T09:13:04;22.90;98.40
48666;DHT22;34452;50.796;4.994;2023-06-24T09:15:32;23.00;99.00
48666;DHT22;34452;50.796;4.994;2023-06-24T09:17:58;23.00;97.90
48666;DHT22;34452;50.796;4.994;2023-06-24T09:20:27;23.20;99.90
48666;DHT22;34452;50.796;4.994;2023-06-24T09:22:58;23.20;97.90
48666;DHT22;34452;50.796;4.994;2023-06-24T09:25:24;23.30;98.40
48666;DHT22;34452;50.796;4.994;2023-06-24T09:27:49;23.40;97.00
48666;DHT22;34452;50.796;4.994;2023-06-24T09:30:19;23.50;97.40
48666;DHT22;34452;50.796;4.994;2023-06-24T09:32:46;23.60;95.20
48666;DHT22;34452;50.796;4.994;2023-06-24T09:35:13;23.60;95.10
48666;DHT22;34452;50.796;4.994;2023-06-24T09:37:39;23.60;94.70
48666;DHT22;34452;50.796;4.994;2023-06-24T09:40:05;23.70;92.40
48666;DHT22;34452;50.796;4.994;2023-06-24T09:42:34;23.80;93.10
48666;DHT22;34452;50.796;4.994;2023-06-24T09:45:04;23.90;93.90
48666;DHT22;34452;50.796;4.994;2023-06-24T09:47:31;23.90;95.70
48666;DHT22;34452;50.796;4.994;2023-06-24T09:49:57;24.00;91.90
48666;DHT22;34452;50.796;4.994;2023-06-24T09:52:23;24.00;91.00
48666;DHT22;34452;50.796;4.994;2023-06-24T09:54:51;24.10;93.00
48666;DHT22;34452;50.796;4.994;2023-06-24T09:57:23;24.20;91.40
48666;DHT22;34452;50.796;4.994;2023-06-24T09:59:51;24.30;92.80
48666;DHT22;34452;50.796;4.994;2023-06-24T10:02:18;24.40;93.70
48666;DHT22;34452;50.796;4.994;2023-06-24T10:04:45;24.40;93.10
48666;DHT22;34452;50.796;4.994;2023-06-24T10:07:12;24.50;93.20
48666;DHT22;34452;50.796;4.994;2023-06-24T10:09:40;24.50;90.30
48666;DHT22;34452;50.796;4.994;2023-06-24T10:12:06;24.60;92.80
48666;DHT22;34452;50.796;4.994;2023-06-24T10:14:32;24.60;92.70
48666;DHT22;34452;50.796;4.994;2023-06-24T10:17:16;24.60;91.90
48666;DHT22;34452;50.796;4.994;2023-06-24T10:19:42;24.80;92.20
48666;DHT22;34452;50.796;4.994;2023-06-24T10:22:10;24.80;92.20
48666;DHT22;34452;50.796;4.994;2023-06-24T10:24:38;25.00;90.60
48666;DHT22;34452;50.796;4.994;2023-06-24T10:27:08;24.90;84.10
48666;DHT22;34452;50.796;4.994;2023-06-24T10:29:36;24.90;83.50
48666;DHT22;34452;50.796;4.994;2023-06-24T10:32:04;24.90;81.70
48666;DHT22;34452;50.796;4.994;2023-06-24T10:42:53;25.30;84.50
48666;DHT22;34452;50.796;4.994;2023-06-24T10:45:20;25.30;80.60
48666;DHT22;34452;50.796;4.994;2023-06-24T10:47:50;25.30;80.00
48666;DHT22;34452;50.796;4.994;2023-06-24T10:50:19;25.40;79.40
48666;DHT22;34452;50.796;4.994;2023-06-24T10:52:47;25.40;74.70
48666;DHT22;34452;50.796;4.994;2023-06-24T10:55:15;25.60;78.50
48666;DHT22;34452;50.796;4.994;2023-06-24T10:57:41;25.70;73.20
48666;DHT22;34452;50.796;4.994;2023-06-24T11:00:07;25.80;72.80
48666;DHT22;34452;50.796;4.994;2023-06-24T11:02:33;25.80;71.60
48666;DHT22;34452;50.796;4.994;2023-06-24T11:05:01;25.90;75.00
48666;DHT22;34452;50.796;4.994;2023-06-24T11:07:29;25.90;68.00
48666;DHT22;34452;50.796;4.994;2023-06-24T11:10:14;26.00;66.60
48666;DHT22;34452;50.796;4.994;2023-06-24T11:12:42;26.00;66.40
48666;DHT22;34452;50.796;4.994;2023-06-24T11:15:09;26.20;69.90
48666;DHT22;34452;50.796;4.994;2023-06-24T11:17:36;26.30;67.10
48666;DHT22;34452;50.796;4.994;2023-06-24T11:20:06;26.30;65.00
48666;DHT22;34452;50.796;4.994;2023-06-24T11:22:33;26.50;67.30
48666;DHT22;34452;50.796;4.994;2023-06-24T11:24:58;26.60;64.50
48666;DHT22;34452;50.796;4.994;2023-06-24T11:27:25;26.70;66.50
48666;DHT22;34452;50.796;4.994;2023-06-24T11:29:52;26.80;64.10
48666;DHT22;34452;50.796;4.994;2023-06-24T11:32:18;26.80;70.80
48666;DHT22;34452;50.796;4.994;2023-06-24T11:34:44;26.90;67.20
48666;DHT22;34452;50.796;4.994;2023-06-24T11:37:13;27.00;66.70
48666;DHT22;34452;50.796;4.994;2023-06-24T11:39:39;27.10;66.40
48666;DHT22;34452;50.796;4.994;2023-06-24T11:42:07;27.10;66.80
48666;DHT22;34452;50.796;4.994;2023-06-24T11:44:33;27.20;67.40
48666;DHT22;34452;50.796;4.994;2023-06-24T11:49:56;27.40;65.70
48666;DHT22;34452;50.796;4.994;2023-06-24T11:52:42;27.50;67.60
48666;DHT22;34452;50.796;4.994;2023-06-24T11:55:28;27.60;71.80
48666;DHT22;34452;50.796;4.994;2023-06-24T11:57:56;27.70;67.10
48666;DHT22;34452;50.796;4.994;2023-06-24T12:00:25;27.70;67.10
48666;DHT22;34452;50.796;4.994;2023-06-24T12:02:54;27.70;66.40
48666;DHT22;34452;50.796;4.994;2023-06-24T12:05:23;27.80;63.40
48666;DHT22;34452;50.796;4.994;2023-06-24T12:10:35;28.10;66.40
48666;DHT22;34452;50.796;4.994;2023-06-24T12:13:02;28.10;65.70
48666;DHT22;34452;50.796;4.994;2023-06-24T12:15:29;28.20;65.60
48666;DHT22;34452;50.796;4.994;2023-06-24T12:17:55;28.30;65.90
48666;DHT22;34452;50.796;4.994;2023-06-24T12:20:21;28.20;62.60
48666;DHT22;34452;50.796;4.994;2023-06-24T12:22:48;28.20;66.40
48666;DHT22;34452;50.796;4.994;2023-06-24T12:25:15;28.30;62.10
48666;DHT22;34452;50.796;4.994;2023-06-24T12:27:42;28.30;61.00
48666;DHT22;34452;50.796;4.994;2023-06-24T12:30:09;28.40;62.50
48666;DHT22;34452;50.796;4.994;2023-06-24T12:32:35;28.40;63.60
48666;DHT22;34452;50.796;4.994;2023-06-24T12:35:02;28.60;66.90
48666;DHT22;34452;50.796;4.994;2023-06-24T12:37:31;28.50;56.20
48666;DHT22;34452;50.796;4.994;2023-06-24T12:39:57;28.30;56.30
48666;DHT22;34452;50.796;4.994;2023-06-24T12:42:23;28.30;56.80
48666;DHT22;34452;50.796;4.994;2023-06-24T12:44:48;28.40;53.00
48666;DHT22;34452;50.796;4.994;2023-06-24T12:47:14;28.40;52.10
48666;DHT22;34452;50.796;4.994;2023-06-24T12:49:40;28.50;58.00
48666;DHT22;34452;50.796;4.994;2023-06-24T12:52:05;28.70;54.80
48666;DHT22;34452;50.796;4.994;2023-06-24T12:54:31;28.70;49.60
48666;DHT22;34452;50.796;4.994;2023-06-24T12:56:57;28.90;50.70
48666;DHT22;34452;50.796;4.994;2023-06-24T12:59:23;28.80;48.80
48666;DHT22;34452;50.796;4.994;2023-06-24T13:01:48;28.90;51.90
48666;DHT22;34452;50.796;4.994;2023-06-24T13:04:14;28.80;48.10
48666;DHT22;34452;50.796;4.994;2023-06-24T13:06:39;28.90;51.90
48666;DHT22;34452;50.796;4.994;2023-06-24T13:09:05;29.00;51.40
48666;DHT22;34452;50.796;4.994;2023-06-24T13:11:31;29.00;51.70
48666;DHT22;34452;50.796;4.994;2023-06-24T13:13:57;29.10;48.00
48666;DHT22;34452;50.796;4.994;2023-06-24T13:16:22;29.10;42.70
48666;DHT22;34452;50.796;4.994;2023-06-24T13:18:48;29.00;47.80
48666;DHT22;34452;50.796;4.994;2023-06-24T13:21:14;28.70;47.60
48666;DHT22;34452;50.796;4.994;2023-06-24T13:23:40;29.00;55.20
48666;DHT22;34452;50.796;4.994;2023-06-24T13:26:07;29.30;50.70
48666;DHT22;34452;50.796;4.994;2023-06-24T13:28:32;29.50;47.50
48666;DHT22;34452;50.796;4.994;2023-06-24T13:30:58;29.30;44.60
48666;DHT22;34452;50.796;4.994;2023-06-24T13:33:24;29.50;49.20
48666;DHT22;34452;50.796;4.994;2023-06-24T13:35:50;29.70;49.80
48666;DHT22;34452;50.796;4.994;2023-06-24T13:38:16;29.80;51.50
48666;DHT22;34452;50.796;4.994;2023-06-24T13:40:42;29.90;49.70
48666;DHT22;34452;50.796;4.994;2023-06-24T13:43:08;29.90;50.10
48666;DHT22;34452;50.796;4.994;2023-06-24T13:45:34;29.80;49.00
48666;DHT22;34452;50.796;4.994;2023-06-24T13:47:59;29.80;52.20
48666;DHT22;34452;50.796;4.994;2023-06-24T13:50:25;30.00;52.60
48666;DHT22;34452;50.796;4.994;2023-06-24T13:52:51;30.10;49.20
48666;DHT22;34452;50.796;4.994;2023-06-24T13:55:16;29.90;49.40
48666;DHT22;34452;50.796;4.994;2023-06-24T13:57:42;30.00;49.20
48666;DHT22;34452;50.796;4.994;2023-06-24T14:00:08;30.10;49.50
48666;DHT22;34452;50.796;4.994;2023-06-24T14:02:34;30.30;50.60
48666;DHT22;34452;50.796;4.994;2023-06-24T14:05:00;30.40;50.30
48666;DHT22;34452;50.796;4.994;2023-06-24T14:07:26;30.50;50.90
48666;DHT22;34452;50.796;4.994;2023-06-24T14:09:52;30.50;49.30
48666;DHT22;34452;50.796;4.994;2023-06-24T14:12:18;30.60;49.60
48666;DHT22;34452;50.796;4.994;2023-06-24T14:14:43;30.60;49.90
48666;DHT22;34452;50.796;4.994;2023-06-24T14:17:09;30.60;52.60
48666;DHT22;34452;50.796;4.994;2023-06-24T14:19:37;30.60;48.10
48666;DHT22;34452;50.796;4.994;2023-06-24T14:22:03;30.70;50.40
48666;DHT22;34452;50.796;4.994;2023-06-24T14:24:29;30.50;47.90
48666;DHT22;34452;50.796;4.994;2023-06-24T14:26:55;30.60;46.70
48666;DHT22;34452;50.796;4.994;2023-06-24T14:29:21;30.30;48.60
48666;DHT22;34452;50.796;4.994;2023-06-24T14:31:47;30.60;51.50
48666;DHT22;34452;50.796;4.994;2023-06-24T14:34:13;30.90;48.40
48666;DHT22;34452;50.796;4.994;2023-06-24T14:36:38;31.00;51.00
48666;DHT22;34452;50.796;4.994;2023-06-24T14:39:04;31.30;49.60
48666;DHT22;34452;50.796;4.994;2023-06-24T14:41:30;31.50;48.40
48666;DHT22;34452;50.796;4.994;2023-06-24T14:43:56;31.60;49.90
48666;DHT22;34452;50.796;4.994;2023-06-24T14:46:21;31.70;47.60
48666;DHT22;34452;50.796;4.994;2023-06-24T14:48:47;31.80;51.60
48666;DHT22;34452;50.796;4.994;2023-06-24T14:51:13;31.80;47.50
48666;DHT22;34452;50.796;4.994;2023-06-24T14:53:38;31.80;48.80
48666;DHT22;34452;50.796;4.994;2023-06-24T14:56:05;31.70;47.30
48666;DHT22;34452;50.796;4.994;2023-06-24T14:58:31;31.70;45.40
48666;DHT22;34452;50.796;4.994;2023-06-24T15:00:57;32.00;45.00
48666;DHT22;34452;50.796;4.994;2023-06-24T15:03:22;32.40;48.50
48666;DHT22;34452;50.796;4.994;2023-06-24T15:05:48;32.60;46.10
48666;DHT22;34452;50.796;4.994;2023-06-24T15:08:14;33.00;44.50
48666;DHT22;34452;50.796;4.994;2023-06-24T15:10:40;33.10;44.70
48666;DHT22;34452;50.796;4.994;2023-06-24T15:13:05;33.30;44.90
48666;DHT22;34452;50.796;4.994;2023-06-24T15:15:31;33.20;42.90
48666;DHT22;34452;50.796;4.994;2023-06-24T15:17:57;33.60;41.30
48666;DHT22;34452;50.796;4.994;2023-06-24T15:20:23;33.70;38.50
48666;DHT22;34452;50.796;4.994;2023-06-24T15:22:49;34.10;41.80
48666;DHT22;34452;50.796;4.994;2023-06-24T15:25:14;34.60;42.80
48666;DHT22;34452;50.796;4.994;2023-06-24T15:27:40;35.00;41.30
48666;DHT22;34452;50.796;4.994;2023-06-24T15:30:06;35.10;42.40
48666;DHT22;34452;50.796;4.994;2023-06-24T15:32:32;35.10;42.20
48666;DHT22;34452;50.796;4.994;2023-06-24T15:34:58;35.00;39.70
48666;DHT22;34452;50.796;4.994;2023-06-24T15:37:26;34.80;40.10
48666;DHT22;34452;50.796;4.994;2023-06-24T15:39:54;35.00;38.80
48666;DHT22;34452;50.796;4.994;2023-06-24T15:42:20;34.90;39.00
48666;DHT22;34452;50.796;4.994;2023-06-24T15:44:46;35.00;38.30
48666;DHT22;34452;50.796;4.994;2023-06-24T15:47:12;35.00;39.00
48666;DHT22;34452;50.796;4.994;2023-06-24T15:49:37;35.20;38.40
48666;DHT22;34452;50.796;4.994;2023-06-24T15:52:03;35.10;40.00